TAF Text Data
IDs:
Format:
Raw Decoded Include METAR

Data at: 2015 UTC 18 Apr 2021

TAF for:KMRB (Martinsburg/E West V, WV, US) issued at 1741 UTC 18 Apr 2021
Text:KMRB 181741Z 1818/1918 27005KT P6SM BKN060
Forecast period:1800 UTC 18 April 2021 to 0700 UTC 19 April 2021
Forecast type:FROM: standard forecast or significant change
Winds:from the W (270 degrees) at 6 MPH (5 knots; 2.6 m/s)
Visibility:6 or more sm (10+ km)
Ceiling:6000 feet AGL
Clouds: broken clouds at 6000 feet AGL
Text:FM190700 00000KT P6SM BKN110
Forecast period:0700 to 1500 UTC 19 April 2021
Forecast type:FROM: standard forecast or significant change
Winds:calm
Visibility:6 or more sm (10+ km)
Ceiling:11000 feet AGL
Clouds: broken clouds at 11000 feet AGL
Text:FM191500 30004KT P6SM FEW150 FEW250
Forecast period:1500 to 1800 UTC 19 April 2021
Forecast type:FROM: standard forecast or significant change
Winds:from the WNW (300 degrees) at 5 MPH (4 knots; 2.1 m/s)
Visibility:6 or more sm (10+ km)
Ceiling:at least 12,000 feet AGL
Clouds: few clouds at 15000 feet AGL, few clouds at 25000 feet AGL